createdAt,value
2023-03-08T00:00:22.045Z,-0.30
2023-03-08T00:02:49.908Z,-0.30
2023-03-08T00:05:19.333Z,-0.30
2023-03-08T00:07:47.207Z,1.10
2023-03-08T00:10:15.055Z,-0.30
2023-03-08T00:12:42.909Z,-0.30
2023-03-08T00:15:11.407Z,-0.30
2023-03-08T00:17:40.368Z,-0.20
2023-03-08T00:20:10.332Z,-0.20
2023-03-08T00:22:40.389Z,-0.10
2023-03-08T00:25:09.860Z,-0.10
2023-03-08T00:27:38.354Z,0.00
2023-03-08T00:30:07.150Z,0.00
2023-03-08T00:32:35.176Z,0.00
2023-03-08T00:35:03.149Z,0.00
2023-03-08T00:37:31.056Z,0.00
2023-03-08T00:40:00.273Z,0.10
2023-03-08T00:42:28.688Z,0.10
2023-03-08T00:44:56.572Z,0.10
2023-03-08T00:47:24.454Z,0.20
2023-03-08T00:49:52.296Z,1.60
2023-03-08T00:52:20.334Z,0.10
2023-03-08T00:54:48.179Z,0.10
2023-03-08T00:57:17.394Z,0.10
2023-03-08T00:59:45.306Z,-0.10
2023-03-08T01:02:13.177Z,0.00
2023-03-08T01:04:41.084Z,-0.10
2023-03-08T01:07:08.967Z,-0.20
2023-03-08T01:09:36.814Z,-0.20
2023-03-08T01:12:05.108Z,-0.30
2023-03-08T01:14:34.319Z,-0.30
2023-03-08T01:17:02.205Z,-0.40
2023-03-08T01:19:30.089Z,-0.40
2023-03-08T01:21:57.960Z,-0.40
2023-03-08T01:24:25.902Z,-0.50
2023-03-08T01:26:55.801Z,-0.50
2023-03-08T01:29:23.669Z,-0.50
2023-03-08T01:31:52.884Z,-0.60
2023-03-08T01:34:20.768Z,-0.60
2023-03-08T01:36:48.606Z,-0.60
2023-03-08T01:39:16.483Z,-0.70
2023-03-08T01:41:44.346Z,-0.80
2023-03-08T01:44:16.591Z,-0.80
2023-03-08T01:46:44.574Z,-1.00
2023-03-08T01:49:16.665Z,-0.80
2023-03-08T01:51:48.259Z,-0.80
2023-03-08T01:54:19.943Z,-0.90
2023-03-08T01:56:50.279Z,-0.90
2023-03-08T01:59:21.799Z,-1.10
2023-03-08T02:01:50.364Z,-1.00
2023-03-08T02:04:19.755Z,-1.00
2023-03-08T02:06:47.621Z,-1.00
2023-03-08T02:09:15.543Z,-1.20
2023-03-08T02:11:44.408Z,-1.10
2023-03-08T02:14:12.444Z,-1.10
2023-03-08T02:16:40.445Z,-1.20
2023-03-08T02:19:15.978Z,-0.60
2023-03-08T02:21:45.203Z,-1.20
2023-03-08T02:24:22.762Z,-1.20
2023-03-08T02:26:52.305Z,-1.30
2023-03-08T02:29:20.247Z,-1.20
2023-03-08T02:31:48.177Z,-1.20
2023-03-08T02:34:16.056Z,-1.50
2023-03-08T02:36:43.880Z,-1.60
2023-03-08T02:39:11.754Z,-1.20
2023-03-08T02:41:40.967Z,-0.60
2023-03-08T02:44:08.875Z,-1.30
2023-03-08T02:46:37.026Z,-1.20
2023-03-08T02:49:04.884Z,-1.20
2023-03-08T02:51:32.766Z,-1.30
2023-03-08T02:54:00.636Z,-1.30
2023-03-08T02:56:28.514Z,-1.30
2023-03-08T02:58:57.772Z,-1.30
2023-03-08T03:01:26.449Z,-1.30
2023-03-08T03:03:55.378Z,-1.30
2023-03-08T03:06:23.794Z,-1.40
2023-03-08T03:08:51.838Z,-1.40
2023-03-08T03:11:21.667Z,-1.40
2023-03-08T03:13:55.993Z,-1.40
2023-03-08T03:16:26.323Z,-1.30
2023-03-08T03:18:55.449Z,-1.30
2023-03-08T03:21:24.412Z,-1.30
2023-03-08T03:23:52.307Z,-1.30
2023-03-08T03:26:22.886Z,-1.30
2023-03-08T03:28:52.255Z,-1.30
2023-03-08T03:31:22.067Z,-1.20
2023-03-08T03:33:52.329Z,-1.20
2023-03-08T03:36:21.760Z,-1.20
2023-03-08T03:38:50.281Z,-1.20
2023-03-08T03:41:20.190Z,-1.20
2023-03-08T03:43:49.161Z,-2.00
2023-03-08T03:46:18.865Z,-1.20
2023-03-08T03:48:46.964Z,-1.20
2023-03-08T03:51:18.175Z,-1.20
2023-03-08T03:53:46.641Z,-1.20
2023-03-08T03:56:16.245Z,-1.20
2023-03-08T03:58:44.324Z,-1.20
2023-03-08T04:01:15.036Z,-1.20
2023-03-08T04:03:43.053Z,-1.30
2023-03-08T04:06:14.327Z,-1.30
2023-03-08T04:08:44.383Z,-1.30
2023-03-08T04:11:13.234Z,-1.30
2023-03-08T04:13:41.296Z,-1.30
2023-03-08T04:16:13.096Z,-1.30
2023-03-08T04:18:41.254Z,-1.30
2023-03-08T04:21:09.444Z,-1.40
2023-03-08T04:23:37.916Z,-1.40
2023-03-08T04:26:08.090Z,-1.40
2023-03-08T04:28:36.050Z,-1.50
2023-03-08T04:31:13.236Z,-1.50
2023-03-08T04:33:41.235Z,-1.50
2023-03-08T04:36:09.828Z,-1.60
2023-03-08T04:38:37.713Z,-1.60
2023-03-08T04:41:11.789Z,-1.60
2023-03-08T04:43:40.405Z,-1.60
2023-03-08T04:46:09.457Z,-1.70
2023-03-08T04:48:37.662Z,-1.70
2023-03-08T04:51:07.292Z,-1.70
2023-03-08T04:53:36.381Z,-1.70
2023-03-08T04:56:04.604Z,-1.70
2023-03-08T04:58:33.872Z,-1.70
2023-03-08T05:01:01.746Z,-1.70
2023-03-08T05:03:29.615Z,-1.70
2023-03-08T05:05:57.504Z,-1.70
2023-03-08T05:08:26.166Z,-2.80
2023-03-08T05:11:00.798Z,-1.70
2023-03-08T05:13:31.125Z,-1.70
2023-03-08T05:16:00.418Z,-1.70
2023-03-08T05:18:28.682Z,-1.70
2023-03-08T05:20:57.800Z,-1.70
2023-03-08T05:23:28.493Z,-1.70
2023-03-08T05:25:58.005Z,-1.70
2023-03-08T05:28:27.739Z,-1.80
2023-03-08T05:31:03.622Z,-1.80
2023-03-08T05:33:31.810Z,-1.80
2023-03-08T05:35:59.716Z,-1.80
2023-03-08T05:38:27.736Z,-1.80
2023-03-08T05:40:55.786Z,-1.80
2023-03-08T05:43:23.624Z,-1.80
2023-03-08T05:45:59.128Z,-1.70
2023-03-08T05:48:28.815Z,-1.70
2023-03-08T05:50:56.768Z,-1.70
2023-03-08T05:53:24.806Z,-1.70
2023-03-08T05:55:52.959Z,-1.70
2023-03-08T05:58:20.837Z,-1.70
2023-03-08T06:00:48.675Z,-1.70
2023-03-08T06:03:16.663Z,-1.70
2023-03-08T06:05:46.007Z,-1.70
2023-03-08T06:08:13.905Z,-1.70
2023-03-08T06:10:41.758Z,-1.60
2023-03-08T06:13:09.702Z,-1.60
2023-03-08T06:15:37.576Z,-1.60
2023-03-08T06:18:05.578Z,-1.50
2023-03-08T06:20:33.871Z,-1.50
2023-03-08T06:23:03.121Z,-1.40
2023-03-08T06:25:31.028Z,-1.40
2023-03-08T06:27:58.987Z,-1.40
2023-03-08T06:30:26.877Z,-1.30
2023-03-08T06:32:54.765Z,-1.30
2023-03-08T06:35:22.677Z,-1.20
2023-03-08T06:37:50.547Z,-1.20
2023-03-08T06:40:20.789Z,-1.20
2023-03-08T06:42:48.714Z,-1.10
2023-03-08T06:45:16.712Z,-1.00
2023-03-08T06:47:44.701Z,-1.00
2023-03-08T06:50:13.038Z,-0.90
2023-03-08T06:52:40.896Z,-0.80
2023-03-08T06:55:09.950Z,-0.80
2023-03-08T06:57:39.136Z,-0.70
2023-03-08T07:00:09.546Z,-0.70
2023-03-08T07:02:37.560Z,-0.60
2023-03-08T07:05:05.922Z,-0.50
2023-03-08T07:07:35.468Z,-0.50
2023-03-08T07:10:03.988Z,-0.40
2023-03-08T07:12:32.312Z,-0.30
2023-03-08T07:15:01.519Z,-0.20
2023-03-08T07:17:29.367Z,-0.10
2023-03-08T07:19:57.253Z,0.00
2023-03-08T07:22:25.157Z,-0.10
2023-03-08T07:24:53.015Z,0.20
2023-03-08T07:27:21.271Z,0.30
2023-03-08T07:29:49.144Z,0.40
2023-03-08T07:32:18.642Z,0.50
2023-03-08T07:34:46.829Z,0.50
2023-03-08T07:37:15.345Z,0.60
2023-03-08T07:39:43.709Z,0.70
2023-03-08T07:42:11.985Z,0.70
2023-03-08T07:44:39.846Z,0.80
2023-03-08T07:47:08.615Z,0.80
2023-03-08T07:49:37.808Z,0.90
2023-03-08T07:52:06.180Z,0.90
2023-03-08T07:54:34.116Z,0.90
2023-03-08T07:57:02.064Z,1.00
2023-03-08T07:59:30.155Z,1.00
2023-03-08T08:01:58.069Z,1.10
2023-03-08T08:04:26.117Z,1.10
2023-03-08T08:06:55.401Z,1.20
2023-03-08T08:09:23.271Z,1.20
2023-03-08T08:11:51.127Z,1.30
2023-03-08T08:14:18.963Z,1.30
2023-03-08T08:16:46.811Z,1.40
2023-03-08T08:19:14.747Z,1.40
2023-03-08T08:21:42.861Z,1.40
2023-03-08T08:24:12.212Z,1.40
2023-03-08T08:26:40.697Z,1.50
2023-03-08T08:29:09.120Z,1.50
2023-03-08T08:31:36.963Z,1.50
2023-03-08T08:34:04.945Z,1.60
2023-03-08T08:36:32.827Z,1.60
2023-03-08T08:39:00.711Z,1.70
2023-03-08T08:41:31.306Z,1.80
2023-03-08T08:44:00.271Z,1.80
2023-03-08T08:46:28.759Z,1.80
2023-03-08T08:48:56.858Z,1.90
2023-03-08T08:51:24.749Z,1.90
2023-03-08T08:53:53.610Z,2.00
2023-03-08T08:56:27.096Z,2.00
2023-03-08T08:58:57.918Z,2.10
2023-03-08T09:01:28.067Z,2.10
2023-03-08T09:03:56.298Z,2.20
2023-03-08T09:06:26.087Z,2.30
2023-03-08T09:08:54.809Z,2.30
2023-03-08T09:11:23.769Z,2.40
2023-03-08T09:13:51.944Z,2.40
2023-03-08T09:16:22.889Z,2.50
2023-03-08T09:18:51.544Z,2.50
2023-03-08T09:21:20.444Z,2.50
2023-03-08T09:23:48.376Z,2.60
2023-03-08T09:26:16.251Z,2.60
2023-03-08T09:28:44.219Z,2.70
2023-03-08T09:31:14.983Z,2.60
2023-03-08T09:33:46.348Z,2.70
2023-03-08T09:36:14.287Z,2.80
2023-03-08T09:38:42.770Z,2.80
2023-03-08T09:41:33.628Z,2.80
2023-03-08T09:44:18.885Z,2.90
2023-03-08T09:46:50.044Z,2.90
2023-03-08T09:49:23.831Z,3.90
2023-03-08T09:52:00.096Z,2.80
2023-03-08T09:54:29.313Z,2.80
2023-03-08T09:56:57.655Z,2.90
2023-03-08T09:59:32.668Z,3.00
2023-03-08T10:02:06.079Z,3.10
2023-03-08T10:04:47.017Z,3.10
2023-03-08T10:07:38.497Z,3.20
2023-03-08T10:10:23.003Z,3.30
2023-03-08T10:13:03.179Z,3.30
2023-03-08T10:15:33.700Z,3.40
2023-03-08T10:18:07.586Z,3.30
2023-03-08T10:20:38.872Z,3.40
2023-03-08T10:23:14.680Z,3.40
2023-03-08T10:25:42.730Z,3.50
2023-03-08T10:28:14.697Z,3.60
2023-03-08T10:30:46.792Z,3.70
2023-03-08T10:33:17.632Z,4.50
2023-03-08T10:35:58.111Z,3.70
2023-03-08T10:38:28.877Z,3.90
2023-03-08T10:41:04.328Z,4.00
2023-03-08T10:43:35.530Z,4.00
2023-03-08T10:46:06.328Z,4.00
2023-03-08T10:48:34.263Z,3.70
2023-03-08T10:51:05.692Z,3.70
2023-03-08T10:53:34.410Z,3.80
2023-03-08T10:56:02.962Z,3.80
2023-03-08T10:58:34.851Z,3.90
2023-03-08T11:01:05.733Z,3.90
2023-03-08T11:03:34.505Z,4.10
2023-03-08T11:06:06.503Z,4.10
2023-03-08T11:08:36.534Z,4.20
2023-03-08T11:11:10.438Z,4.30
2023-03-08T11:13:41.773Z,4.30
2023-03-08T11:16:28.337Z,4.40
2023-03-08T11:19:03.967Z,4.60
2023-03-08T11:21:45.631Z,4.50
2023-03-08T11:24:21.727Z,4.50
2023-03-08T11:27:02.760Z,4.40
2023-03-08T11:29:42.643Z,4.40
2023-03-08T11:32:29.313Z,4.60
2023-03-08T11:35:10.354Z,4.70
2023-03-08T11:37:45.316Z,4.80
2023-03-08T11:40:24.038Z,4.90
2023-03-08T11:43:02.947Z,5.00
2023-03-08T11:45:36.072Z,5.20
2023-03-08T11:48:34.122Z,5.40
2023-03-08T11:51:07.557Z,5.50
2023-03-08T11:53:47.516Z,5.70
2023-03-08T11:56:31.615Z,6.20
2023-03-08T11:59:04.346Z,5.80
2023-03-08T12:01:39.036Z,6.10
2023-03-08T12:04:13.363Z,6.00
2023-03-08T12:06:43.816Z,6.10
2023-03-08T12:09:22.541Z,5.90
2023-03-08T12:11:54.543Z,5.80
2023-03-08T12:14:25.704Z,5.60
2023-03-08T12:17:00.761Z,6.50
2023-03-08T12:19:40.793Z,5.70
2023-03-08T12:22:22.651Z,5.70
2023-03-08T12:24:56.668Z,5.80
2023-03-08T12:27:30.139Z,6.00
2023-03-08T12:30:20.720Z,5.70
2023-03-08T12:32:50.121Z,5.60
2023-03-08T12:35:30.661Z,5.50
2023-03-08T12:38:00.753Z,5.50
2023-03-08T12:40:36.845Z,5.80
2023-03-08T12:43:07.159Z,5.40
2023-03-08T12:45:35.505Z,5.20
2023-03-08T12:48:24.959Z,5.70
2023-03-08T12:51:01.080Z,5.10
2023-03-08T12:53:36.170Z,5.20
2023-03-08T12:56:15.574Z,5.10
2023-03-08T12:59:03.015Z,5.10
2023-03-08T13:01:42.958Z,5.20
2023-03-08T13:04:44.727Z,5.10
2023-03-08T13:07:21.399Z,5.00
2023-03-08T13:09:56.830Z,4.90
2023-03-08T13:12:33.564Z,4.80
2023-03-08T13:15:23.069Z,4.80
2023-03-08T13:17:54.195Z,4.60
2023-03-08T13:20:25.386Z,4.70
2023-03-08T13:23:04.787Z,4.90
2023-03-08T13:25:46.611Z,4.60
2023-03-08T13:28:17.617Z,4.50
2023-03-08T13:30:51.913Z,4.30
2023-03-08T13:33:23.990Z,4.10
2023-03-08T13:35:59.969Z,4.00
2023-03-08T13:38:31.062Z,4.00
2023-03-08T13:41:00.315Z,4.50
2023-03-08T13:43:30.951Z,4.20
2023-03-08T13:46:01.766Z,4.10
2023-03-08T13:48:32.163Z,4.60
2023-03-08T13:51:00.791Z,4.10
2023-03-08T13:53:32.835Z,4.00
2023-03-08T13:56:03.250Z,3.90
2023-03-08T13:58:34.997Z,3.90
2023-03-08T14:01:05.691Z,3.70
2023-03-08T14:03:34.403Z,3.60
2023-03-08T14:06:02.746Z,3.50
2023-03-08T14:08:30.718Z,3.50
2023-03-08T14:11:01.450Z,3.40
2023-03-08T14:13:32.199Z,3.30
2023-03-08T14:16:03.834Z,3.20
2023-03-08T14:18:36.068Z,3.20
2023-03-08T14:21:07.510Z,3.10
2023-03-08T14:23:40.308Z,3.20
2023-03-08T14:26:23.949Z,3.20
2023-03-08T14:29:02.832Z,3.30
2023-03-08T14:31:32.242Z,3.30
2023-03-08T14:34:01.729Z,3.30
2023-03-08T14:36:32.271Z,3.30
2023-03-08T14:39:00.987Z,3.20
2023-03-08T14:41:34.971Z,3.20
2023-03-08T14:44:04.533Z,3.10
2023-03-08T14:46:33.794Z,3.00
2023-03-08T14:49:03.237Z,3.00
2023-03-08T14:51:37.560Z,3.00
2023-03-08T14:54:07.189Z,3.00
2023-03-08T14:56:37.119Z,3.20
2023-03-08T14:59:05.880Z,3.00
2023-03-08T15:01:37.559Z,3.00
2023-03-08T15:04:14.733Z,3.00
2023-03-08T15:06:44.311Z,2.90
2023-03-08T15:09:15.968Z,2.90
2023-03-08T15:11:44.590Z,2.90
2023-03-08T15:14:13.397Z,2.80
2023-03-08T15:16:42.681Z,2.70
2023-03-08T15:19:12.040Z,2.70
2023-03-08T15:21:40.096Z,2.60
2023-03-08T15:24:08.750Z,2.50
2023-03-08T15:26:36.587Z,2.50
2023-03-08T15:29:04.487Z,2.40
2023-03-08T15:31:32.629Z,2.40
2023-03-08T15:34:01.826Z,2.40
2023-03-08T15:36:32.460Z,2.40
2023-03-08T15:39:01.340Z,2.40
2023-03-08T15:41:29.405Z,2.30
2023-03-08T15:43:57.249Z,2.30
2023-03-08T15:46:25.132Z,2.40
2023-03-08T15:48:53.015Z,2.30
2023-03-08T15:51:25.170Z,2.60
2023-03-08T15:53:53.005Z,2.20
2023-03-08T15:56:22.589Z,2.10
2023-03-08T15:58:50.609Z,2.10
2023-03-08T16:01:18.702Z,2.00
2023-03-08T16:03:46.603Z,2.00
2023-03-08T16:06:17.461Z,1.90
2023-03-08T16:08:46.812Z,2.00
2023-03-08T16:11:17.967Z,1.80
2023-03-08T16:13:45.911Z,1.70
2023-03-08T16:16:13.870Z,1.70
2023-03-08T16:18:41.752Z,1.60
2023-03-08T16:21:09.988Z,1.60
2023-03-08T16:23:38.680Z,1.50
2023-03-08T16:26:15.906Z,1.50
2023-03-08T16:28:46.562Z,1.50
2023-03-08T16:31:15.387Z,1.50
2023-03-08T16:33:43.371Z,1.50
2023-03-08T16:36:12.689Z,1.40
2023-03-08T16:38:41.013Z,1.40
2023-03-08T16:41:13.200Z,1.40
2023-03-08T16:43:49.512Z,1.90
2023-03-08T16:46:19.320Z,1.30
2023-03-08T16:48:49.120Z,1.30
2023-03-08T16:51:18.869Z,1.30
2023-03-08T16:53:47.010Z,1.30
2023-03-08T16:56:20.385Z,1.20
2023-03-08T16:58:48.693Z,1.20
2023-03-08T17:01:18.556Z,1.20
2023-03-08T17:03:46.741Z,1.20
2023-03-08T17:06:17.291Z,1.10
2023-03-08T17:08:45.695Z,1.20
2023-03-08T17:11:17.376Z,1.20
2023-03-08T17:13:50.744Z,1.20
2023-03-08T17:16:18.872Z,1.20
2023-03-08T17:18:46.965Z,1.10
2023-03-08T17:21:15.248Z,1.10
2023-03-08T17:23:43.414Z,1.10
2023-03-08T17:26:13.389Z,1.10
2023-03-08T17:28:41.643Z,1.10
2023-03-08T17:31:12.014Z,1.00
2023-03-08T17:33:40.479Z,1.00
2023-03-08T17:36:10.261Z,1.00
2023-03-08T17:38:38.438Z,1.00
2023-03-08T17:41:07.773Z,0.90
2023-03-08T17:43:35.998Z,0.80
2023-03-08T17:46:06.385Z,0.80
2023-03-08T17:48:36.572Z,0.90
2023-03-08T17:51:05.296Z,0.70
2023-03-08T17:53:34.036Z,0.70
2023-03-08T17:56:02.125Z,0.70
2023-03-08T17:58:30.319Z,0.70
2023-03-08T18:00:58.210Z,0.60
2023-03-08T18:03:26.112Z,0.60
2023-03-08T18:05:55.441Z,1.50
2023-03-08T18:08:23.278Z,1.30
2023-03-08T18:10:51.149Z,0.70
2023-03-08T18:13:18.994Z,0.60
2023-03-08T18:15:46.894Z,0.60
2023-03-08T18:18:14.763Z,0.60
2023-03-08T18:20:42.650Z,0.60
2023-03-08T18:23:13.474Z,0.60
2023-03-08T18:25:41.515Z,0.60
2023-03-08T18:28:09.421Z,0.60
2023-03-08T18:30:39.437Z,0.60
2023-03-08T18:33:07.363Z,0.50
2023-03-08T18:35:35.415Z,0.50
2023-03-08T18:38:03.453Z,0.50
2023-03-08T18:40:32.753Z,0.50
2023-03-08T18:43:00.780Z,0.50
2023-03-08T18:45:28.670Z,0.50
2023-03-08T18:47:56.669Z,0.50
2023-03-08T18:50:25.109Z,0.50
2023-03-08T18:52:53.012Z,1.50
2023-03-08T18:55:20.851Z,0.40
2023-03-08T18:57:50.077Z,0.40
2023-03-08T19:00:18.758Z,0.40
2023-03-08T19:02:46.639Z,0.40
2023-03-08T19:05:14.501Z,0.40
2023-03-08T19:07:42.386Z,0.40
2023-03-08T19:10:14.636Z,0.40
2023-03-08T19:12:43.647Z,0.40
2023-03-08T19:15:13.543Z,0.40
2023-03-08T19:17:41.404Z,0.30
2023-03-08T19:20:10.851Z,0.40
2023-03-08T19:22:39.654Z,0.40
2023-03-08T19:25:08.296Z,0.40
2023-03-08T19:27:36.270Z,0.30
2023-03-08T19:30:04.577Z,0.30
2023-03-08T19:32:33.789Z,0.30
2023-03-08T19:35:02.794Z,0.30
2023-03-08T19:37:30.946Z,0.30
2023-03-08T19:40:00.945Z,0.30
2023-03-08T19:42:29.295Z,-0.40
2023-03-08T19:44:57.149Z,0.30
2023-03-08T19:47:25.015Z,0.30
2023-03-08T19:49:54.250Z,0.40
2023-03-08T19:52:22.126Z,0.30
2023-03-08T19:54:49.992Z,0.40
2023-03-08T19:57:17.996Z,0.40
2023-03-08T19:59:45.874Z,0.40
2023-03-08T20:02:13.902Z,0.40
2023-03-08T20:04:42.106Z,0.40
2023-03-08T20:07:11.439Z,1.20
2023-03-08T20:09:41.115Z,0.40
2023-03-08T20:12:09.083Z,0.40
2023-03-08T20:14:37.494Z,0.40
2023-03-08T20:17:05.727Z,0.40
2023-03-08T20:19:34.097Z,0.40
2023-03-08T20:22:02.270Z,0.40
2023-03-08T20:24:31.711Z,0.50
2023-03-08T20:26:59.812Z,0.40
2023-03-08T20:29:27.772Z,0.40
2023-03-08T20:31:58.124Z,0.40
2023-03-08T20:34:27.091Z,0.40
2023-03-08T20:36:54.972Z,0.40
2023-03-08T20:39:23.553Z,0.40
2023-03-08T20:41:53.754Z,0.50
2023-03-08T20:44:21.669Z,0.50
2023-03-08T20:46:50.052Z,0.40
2023-03-08T20:49:17.971Z,0.40
2023-03-08T20:51:45.968Z,0.40
2023-03-08T20:54:13.917Z,0.50
2023-03-08T20:56:41.965Z,0.40
2023-03-08T20:59:11.192Z,0.50
2023-03-08T21:01:40.772Z,0.40
2023-03-08T21:04:08.766Z,0.40
2023-03-08T21:06:36.845Z,0.40
2023-03-08T21:09:05.309Z,0.40
2023-03-08T21:11:33.443Z,0.40
2023-03-08T21:14:01.375Z,0.40
2023-03-08T21:16:31.391Z,0.40
2023-03-08T21:19:01.135Z,0.40
2023-03-08T21:21:32.870Z,0.50
2023-03-08T21:24:02.603Z,0.50
2023-03-08T21:26:31.485Z,0.40
2023-03-08T21:29:01.635Z,0.50
2023-03-08T21:31:31.398Z,0.50
2023-03-08T21:33:59.613Z,0.40
2023-03-08T21:36:27.632Z,0.40
2023-03-08T21:38:57.815Z,0.50
2023-03-08T21:41:27.989Z,0.50
2023-03-08T21:43:56.325Z,0.50
2023-03-08T21:46:25.026Z,0.50
2023-03-08T21:48:55.965Z,0.50
2023-03-08T21:51:24.101Z,0.50
2023-03-08T21:53:52.162Z,0.50
2023-03-08T21:56:20.309Z,0.50
2023-03-08T21:58:48.165Z,0.50
2023-03-08T22:01:20.858Z,0.50
2023-03-08T22:03:48.765Z,0.50
2023-03-08T22:06:18.028Z,0.50
2023-03-08T22:08:46.172Z,0.50
2023-03-08T22:11:14.268Z,0.50
2023-03-08T22:13:42.872Z,0.50
2023-03-08T22:16:11.071Z,0.50
2023-03-08T22:18:38.924Z,0.50
2023-03-08T22:21:07.295Z,0.50
2023-03-08T22:23:36.523Z,0.50
2023-03-08T22:26:08.044Z,0.60
2023-03-08T22:28:36.029Z,0.60
2023-03-08T22:31:09.844Z,0.60
2023-03-08T22:33:38.017Z,0.60
2023-03-08T22:36:06.883Z,0.60
2023-03-08T22:38:36.543Z,0.70
2023-03-08T22:41:10.179Z,0.60
2023-03-08T22:43:37.996Z,0.60
2023-03-08T22:46:10.204Z,0.50
2023-03-08T22:48:38.352Z,0.60
2023-03-08T22:51:11.202Z,0.60
2023-03-08T22:53:40.938Z,0.60
2023-03-08T22:56:16.477Z,0.60
2023-03-08T22:58:44.352Z,0.90
2023-03-08T23:01:14.665Z,0.50
2023-03-08T23:03:42.675Z,0.50
2023-03-08T23:06:10.790Z,0.60
2023-03-08T23:08:40.195Z,0.60
2023-03-08T23:11:08.284Z,0.60
2023-03-08T23:13:36.196Z,0.60
2023-03-08T23:16:07.213Z,0.60
2023-03-08T23:18:37.328Z,0.60
2023-03-08T23:21:05.997Z,0.50
2023-03-08T23:23:34.159Z,0.50
2023-03-08T23:26:06.008Z,0.50
2023-03-08T23:28:35.418Z,0.50
2023-03-08T23:31:03.578Z,0.50
2023-03-08T23:33:31.432Z,0.50
2023-03-08T23:35:59.299Z,0.40
2023-03-08T23:38:27.176Z,0.40
2023-03-08T23:40:55.015Z,0.40
2023-03-08T23:43:24.208Z,0.50
2023-03-08T23:45:52.063Z,0.40
2023-03-08T23:48:19.889Z,0.40
2023-03-08T23:50:47.736Z,0.40
2023-03-08T23:53:15.622Z,0.40
2023-03-08T23:55:43.912Z,0.40
2023-03-08T23:58:11.813Z,0.40
